AirNav   Air Wisconsin Up To $57,000 Bonus
 
 1051 users online  

5IL5 Hope Field Airport
Mazon, Illinois, USA

GOING TO MAZON?


FAA INFORMATION EFFECTIVE 03 NOVEMBER 2022

Location

FAA Identifier: 5IL5
Lat/Long: 41-15-35.7300N 088-21-23.5300W
41-15.595500N 088-21.392167W
41.2599250,-88.3565361
(estimated)
Elevation: 558 ft. / 170 m
From city: 3 miles NE of MAZON, IL
Time zone: UTC -6 (UTC -5 during Daylight Saving Time)
Zip code: 60444

Airport Operations

Airport use: Private use. Permission required prior to landing
Activation date: 12/2013
Control tower: no
ARTCC: CHICAGO CENTER
FSS: KANKAKEE FLIGHT SERVICE STATION
Attendance: IRREG
Wind indicator: yes
Segmented circle: no

Airport Communications

WX AWOS-3 at C09 (10 nm N): 118.175 (815-941-1815)
WX AWOS-3 at JOT (17 nm NE): 119.975 (815-730-9560)

Nearby radio navigation aids

VOR radial/distance  VOR name  Freq  Var
JOTr184/17.3JOLIET VOR/DME112.3002E
EONr267/25.5PEOTONE VORTAC113.2002E
PNTr030/31.4PONTIAC VOR/DME109.6003E
DPAr178/37.8DUPAGE VOR/DME108.4002E
CGTr245/38.4CHICAGO HEIGHTS VORTAC114.2002E

Airport Services

Runway Information

Runway 9/27

Dimensions: 2070 x 100 ft. / 631 x 30 m
Surface: turf, in good condition
RUNWAY 9  RUNWAY 27
Traffic pattern: leftleft

Airport Ownership and Management from official FAA records

Ownership: Privately-owned
Owner: BILL SHAIN
890 N 7TH STREET
COAL CITY, IL 60416
Phone 815-634-8992
Manager: BILL SHAIN
890 N 7TH STREET
COAL CITY, IL 60416
Phone 815-634-8992

Airport Operational Statistics

Aircraft based on the field: 1
Single engine airplanes: 1
    

Additional Remarks

FOR CD CTC CHICAGO ARTCC AT 630-906-8921.

Instrument Procedures

There are no published instrument procedures at 5IL5.

Some nearby airports with instrument procedures:

C09 - Morris Municipal Airport-James R. Washburn Field (10 nm N)
KPNT - Pontiac Municipal Airport (23 nm SW)
KLOT - Lewis University Airport (24 nm NE)
KIKK - Greater Kankakee Airport (26 nm SE)
1C5 - Bolingbrook's Clow International Airport (28 nm N)
 
Loc | Ops | Rwys | IFR | FBO | Links
Com | Nav | Svcs | Stats | Notes
Aerial photo
No photo
 
Airport distance calculator
Flying to Hope Field Airport? Find the distance to fly.

From to 5IL5

Sunrise and sunset
Times for 29-Nov-2022
 Local
(UTC-6)
 Zulu
(UTC)
Morning civil twilight06:2812:28
Sunrise06:5912:59
Sunset16:2522:25
Evening civil twilight16:5522:55

Current date and time
Zulu (UTC)  30-Nov-2022 01:16:39
Local (UTC-6)  29-Nov-2022 19:16:39
 
METAR
KC09 
11nm N 
300055Z AUTO 20017G22KT 7SM -RA OVC011 13/13 A2948 RMK AO2 P0001 T01330132
KJOT 
18nm NE 
300055Z AUTO 20014G21KT 5SM +RA OVC012 14/13 A2949 RMK AO2 P0002 T01440126
TAF
KDPA 
40nm N 
292034Z 2921/3018 18020G33KT P6SM BKN025 TEMPO 3000/3002 25020G35KT 3SM SHRA BR FM300300 27019G31KT P6SM OVC017 FM301000 28019G31KT P6SM BKN035
KMDW 
42nm NE 
292034Z 2921/3024 18020G32KT P6SM OVC025 TEMPO 3001/3003 25020G35KT 3SM SHRA FM300300 27019G31KT P6SM OVC017 FM301000 28019G32KT P6SM BKN035
KORD 
47nm NE 
292034Z 2921/3024 18020G32KT P6SM OVC025 TEMPO 3001/3003 25020G35KT 3SM SHRA FM300300 27019G31KT P6SM OVC017 FM301000 28019G32KT P6SM BKN035
KGYY 
47nm NE 
292035Z 2921/3018 15020G32KT P6SM BKN030 TEMPO 3002/3004 25025G35KT 3SM SHRA FM300400 27019G31KT P6SM OVC017 FM301100 28019G31KT P6SM BKN035
NOTAMs
Click for the latest NOTAMs
NOTAMs are issued by the DoD/FAA and will open in a separate window not controlled by AirNav.

 

 
 

Would you like to see your business listed on this page?

 If your business provides an interesting product or service to pilots, flight crews, aircraft, or users of the Hope Field Airport, you should consider listing it here.  To start the listing process, click on the button below
 
Add a business
 

Other Pages about Hope Field Airport

Update a link
 
Copyright © AirNav, LLC. All rights reserved. Privacy Policy  Contact